Terminal Aerodrome Forecast
Issued by NWS

Home | Current Version | Previous Version | Text Only | Print | Product List | Glossary On
Versions: 1 2 3 4 5 6 7 8 9 10 11 12 13 14 15 16 17
000
FTUS43 KAPX 191700
TAFMBL
TAF
KMBL 191725Z 1918/2018 17008G15KT P6SM BKN250
     FM192000 19011G22KT P6SM BKN250
     FM200100 17009KT P6SM OVC150 WS007/19030KT
     FM200400 18011KT P6SM -SHRA OVC050 WS007/20035KT
     FM201300 23011G18KT P6SM BKN015
      AMD LTD TO CLD VIS AND WIND=

USA.gov is the U.S. government's official web portal to all federal, state and local government web resources and services.